Time;durP1;ratioP1;P1;durP2;ratioP2;P2;SDS_P1;SDS_P2;PMS_P1;PMS_P2;Temp;Humidity;BMP_temperature;BMP_pressure;BME280_temperature;BME280_humidity;BME280_pressure;Samples;Min_cycle;Max_cycle;Signal;HPM_P1;HPM_P2
2022/05/31 00:01:07;;;;;;;5.40;4.28;;;19.40;59.80;;;;;;5075207;28;20016;-90
2022/05/31 00:04:00;;;;;;;5.20;4.10;;;19.60;59.00;;;;;;5075550;28;20049;-91
2022/05/31 00:06:32;;;;;;;5.85;4.25;;;19.60;59.00;;;;;;5076613;28;20383;-82
2022/05/31 00:08:58;;;;;;;7.13;4.30;;;19.80;58.30;;;;;;5075805;28;20029;-89
2022/05/31 00:11:24;;;;;;;5.93;4.30;;;19.60;57.80;;;;;;5075095;28;20024;-85
2022/05/31 00:13:50;;;;;;;7.30;3.90;;;19.80;57.70;;;;;;5077353;28;20028;-90
2022/05/31 00:16:18;;;;;;;5.47;3.95;;;20.00;57.50;;;;;;5076946;28;20065;-83
2022/05/31 00:18:44;;;;;;;9.38;4.60;;;20.00;57.40;;;;;;5096073;28;20023;-88
2022/05/31 00:21:10;;;;;;;4.82;3.60;;;19.90;57.90;;;;;;5097052;28;20489;-89
2022/05/31 00:23:40;;;;;;;4.80;3.72;;;19.80;58.90;;;;;;5099037;28;20108;-88
2022/05/31 00:26:06;;;;;;;5.28;3.53;;;19.30;59.60;;;;;;5099690;28;20020;-83
2022/05/31 00:28:41;;;;;;;5.45;3.95;;;18.90;61.40;;;;;;5096934;28;20020;-90
2022/05/31 00:31:16;;;;;;;5.80;4.50;;;19.10;60.10;;;;;;5094405;28;20055;-89
2022/05/31 00:33:42;;;;;;;7.85;4.03;;;19.30;59.00;;;;;;5099003;28;20039;-92
2022/05/31 00:36:11;;;;;;;5.97;5.10;;;19.40;58.30;;;;;;5098571;28;20019;-90
2022/05/31 00:38:37;;;;;;;6.07;4.22;;;19.50;58.50;;;;;;5096907;28;20020;-85
2022/05/31 00:41:33;;;;;;;6.50;4.57;;;19.50;58.80;;;;;;5112310;28;20024;-89
2022/05/31 00:44:16;;;;;;;8.30;5.05;;;19.60;58.10;;;;;;5112442;28;20075;-89
2022/05/31 00:47:04;;;;;;;5.53;4.20;;;19.50;58.50;;;;;;5077480;28;20537;-87
2022/05/31 00:49:46;;;;;;;6.72;4.75;;;19.50;59.50;;;;;;5078938;28;20031;-79
2022/05/31 00:52:23;;;;;;;7.93;4.70;;;19.50;60.60;;;;;;5099579;28;20020;-88
2022/05/31 00:54:53;;;;;;;5.65;3.72;;;19.60;61.00;;;;;;5099122;28;20031;-82
2022/05/31 00:57:25;;;;;;;5.50;3.67;;;19.80;60.50;;;;;;5098524;28;20569;-85
2022/05/31 00:59:55;;;;;;;5.60;3.80;;;20.00;60.00;;;;;;5098148;28;20393;-81
2022/05/31 01:02:21;;;;;;;;;;;20.00;60.30;;;;;;5096763;28;20047;-80
2022/05/31 01:04:56;;;;;;;6.85;3.60;;;20.10;60.20;;;;;;5115076;28;19918;-80
2022/05/31 01:07:22;;;;;;;6.13;3.47;;;20.10;60.10;;;;;;5116331;28;20046;-80
2022/05/31 01:09:49;;;;;;;6.05;3.60;;;20.10;60.40;;;;;;5114184;28;20107;-77
2022/05/31 01:12:16;;;;;;;4.75;3.33;;;20.10;60.10;;;;;;5115955;28;20015;-85
2022/05/31 01:14:42;;;;;;;5.50;3.58;;;20.10;60.40;;;;;;5110364;28;20120;-87
2022/05/31 01:17:22;;;;;;;4.82;3.63;;;20.00;60.30;;;;;;5077610;28;20083;-77
2022/05/31 01:19:55;;;;;;;5.63;3.40;;;20.10;60.30;;;;;;5083718;28;20032;-82
2022/05/31 01:22:26;;;;;;;4.90;3.40;;;20.20;60.10;;;;;;5115965;28;20473;-77
2022/05/31 01:25:01;;;;;;;5.57;3.35;;;20.30;59.60;;;;;;5096203;28;20422;-83
2022/05/31 01:27:58;;;;;;;5.88;3.20;;;20.40;59.50;;;;;;5098209;28;20049;-92
2022/05/31 01:30:27;;;;;;;5.35;3.10;;;20.60;59.10;;;;;;5011168;28;20109;-94
2022/05/31 01:33:04;;;;;;;5.97;3.38;;;20.50;59.30;;;;;;5014064;28;20038;-81
2022/05/31 01:35:33;;;;;;;4.97;3.22;;;20.40;59.50;;;;;;4996805;28;20030;-81
2022/05/31 01:38:17;;;;;;;5.35;3.35;;;20.60;59.30;;;;;;4996889;28;20121;-85
2022/05/31 01:40:52;;;;;;;5.30;3.13;;;20.70;59.00;;;;;;4979398;28;20039;-88
2022/05/31 01:43:18;;;;;;;5.47;2.90;;;20.90;58.50;;;;;;4993379;28;20046;-82
2022/05/31 01:45:51;;;;;;;5.40;3.30;;;21.00;58.40;;;;;;4977803;28;20634;-79
2022/05/31 01:48:17;;;;;;;4.80;3.00;;;21.00;58.30;;;;;;4977636;28;20034;-88
2022/05/31 01:50:45;;;;;;;6.97;3.25;;;21.00;58.40;;;;;;4996896;28;20037;-85
2022/05/31 01:53:11;;;;;;;5.25;3.20;;;21.10;57.80;;;;;;4989611;28;20034;-82
2022/05/31 01:55:40;;;;;;;4.40;3.00;;;21.20;57.70;;;;;;5003082;28;20392;-89
2022/05/31 01:58:08;;;;;;;5.65;3.20;;;21.10;57.70;;;;;;4996419;28;20035;-84
2022/05/31 02:00:35;;;;;;;5.38;3.10;;;20.90;58.70;;;;;;4996975;28;20459;-89
2022/05/31 02:03:05;;;;;;;5.55;3.35;;;20.90;58.70;;;;;;4996453;28;20074;-82
2022/05/31 02:05:30;;;;;;;5.20;3.10;;;21.00;58.40;;;;;;4993898;28;20033;-90
2022/05/31 02:07:59;;;;;;;6.05;3.10;;;21.10;58.00;;;;;;5056356;28;20043;-90
2022/05/31 02:10:26;;;;;;;5.63;2.92;;;20.90;58.70;;;;;;5094216;28;20107;-79
2022/05/31 02:12:53;;;;;;;4.78;3.08;;;21.00;58.30;;;;;;5093520;28;20111;-87
2022/05/31 02:15:20;;;;;;;6.50;3.38;;;20.80;58.50;;;;;;5097301;28;20047;-81
2022/05/31 02:17:46;;;;;;;6.68;3.50;;;20.50;59.60;;;;;;5095818;28;20036;-82
2022/05/31 02:20:13;;;;;;;5.43;3.15;;;20.50;59.20;;;;;;5094586;28;20074;-83
2022/05/31 02:22:39;;;;;;;4.45;3.35;;;20.60;59.20;;;;;;5093172;28;20036;-93
2022/05/31 02:25:05;;;;;;;5.88;3.22;;;20.70;59.00;;;;;;5095060;28;20026;-90
2022/05/31 02:27:30;;;;;;;4.97;3.40;;;20.80;59.20;;;;;;5093919;28;20036;-81
2022/05/31 02:29:56;;;;;;;4.65;3.10;;;20.70;59.20;;;;;;5094523;28;20486;-84
2022/05/31 02:32:22;;;;;;;4.47;3.28;;;20.80;58.90;;;;;;5093199;28;20385;-88
2022/05/31 02:34:50;;;;;;;5.53;3.13;;;20.90;58.60;;;;;;5095664;28;20047;-81
2022/05/31 02:37:18;;;;;;;4.35;3.20;;;20.80;59.00;;;;;;5113624;28;20030;-90
2022/05/31 02:39:44;;;;;;;5.45;3.50;;;21.00;58.70;;;;;;5114255;28;20080;-81
2022/05/31 02:42:10;;;;;;;6.47;3.58;;;21.30;58.00;;;;;;5114520;28;20035;-88
2022/05/31 02:44:37;;;;;;;5.20;3.70;;;21.30;57.40;;;;;;5111172;28;20375;-83
2022/05/31 02:47:04;;;;;;;4.70;3.38;;;21.10;57.80;;;;;;5113753;28;20028;-86
2022/05/31 02:49:29;;;;;;;5.68;3.70;;;21.10;57.80;;;;;;5113254;28;20431;-82
2022/05/31 02:51:58;;;;;;;7.47;3.70;;;21.30;57.50;;;;;;5114803;28;20462;-90
2022/05/31 02:54:24;;;;;;;5.18;3.50;;;21.20;57.40;;;;;;5103050;28;20386;-84
2022/05/31 02:56:50;;;;;;;5.85;3.95;;;21.20;57.30;;;;;;5110260;28;20497;-89
2022/05/31 02:59:16;;;;;;;5.07;3.80;;;21.00;57.50;;;;;;5109432;28;20084;-81
2022/05/31 03:01:43;;;;;;;6.57;3.80;;;20.90;57.60;;;;;;5109427;28;20031;-78
2022/05/31 03:04:11;;;;;;;5.43;3.88;;;20.80;57.60;;;;;;5093022;28;20043;-89
2022/05/31 03:06:37;;;;;;;4.85;3.90;;;20.40;58.40;;;;;;5093832;28;20024;-86
2022/05/31 03:09:04;;;;;;;7.05;4.18;;;20.50;58.30;;;;;;5109920;28;20104;-82
2022/05/31 03:11:55;;;;;;;6.70;4.43;;;20.50;58.10;;;;;;5093523;28;20032;-84
2022/05/31 03:14:24;;;;;;;;;;;20.60;58.40;;;;;;5101740;28;20055;-92
2022/05/31 03:17:15;;;;;;;6.35;4.32;;;20.60;58.40;;;;;;5114257;28;19912;-86
2022/05/31 03:20:04;;;;;;;6.82;4.05;;;20.60;58.90;;;;;;5114591;28;20032;-85
2022/05/31 03:22:35;;;;;;;6.07;4.40;;;20.60;58.00;;;;;;5102306;28;20047;-85
2022/05/31 03:25:06;;;;;;;8.35;4.20;;;20.60;57.90;;;;;;5111291;28;20024;-87
2022/05/31 03:27:33;;;;;;;6.55;4.22;;;20.50;58.20;;;;;;5113141;28;20039;-85
2022/05/31 03:30:00;;;;;;;5.20;4.20;;;20.60;58.30;;;;;;5113245;28;20047;-83
2022/05/31 03:32:27;;;;;;;6.30;4.53;;;20.50;58.30;;;;;;5108487;28;20023;-89
2022/05/31 03:34:52;;;;;;;6.95;4.22;;;20.50;58.70;;;;;;5112598;28;20423;-79
2022/05/31 03:37:18;;;;;;;5.13;4.00;;;20.60;58.20;;;;;;5112752;28;20490;-89
2022/05/31 03:39:44;;;;;;;5.13;4.40;;;20.50;58.30;;;;;;5112343;28;20020;-80
2022/05/31 03:42:10;;;;;;;6.13;4.07;;;20.50;58.50;;;;;;5110663;28;20074;-84
2022/05/31 03:44:36;;;;;;;5.65;4.47;;;20.50;58.50;;;;;;5113505;28;20044;-82
2022/05/31 03:47:11;;;;;;;6.25;4.10;;;20.40;58.70;;;;;;5113033;28;20027;-84
2022/05/31 03:49:37;;;;;;;6.30;4.10;;;20.40;58.90;;;;;;5113857;28;20023;-84
2022/05/31 03:52:03;;;;;;;5.95;4.30;;;20.50;59.20;;;;;;5108397;28;20034;-91
2022/05/31 03:54:29;;;;;;;5.00;3.70;;;20.60;59.00;;;;;;5092037;28;20028;-79
2022/05/31 03:56:54;;;;;;;4.90;3.95;;;20.60;58.70;;;;;;5091993;28;20024;-82
2022/05/31 03:59:20;;;;;;;5.72;4.32;;;20.50;59.40;;;;;;5091952;28;20028;-81
2022/05/31 04:01:46;;;;;;;5.82;3.85;;;20.60;59.40;;;;;;5095590;28;20028;-79
2022/05/31 04:04:12;;;;;;;5.60;3.67;;;20.50;59.40;;;;;;5111974;28;20547;-90
2022/05/31 04:06:39;;;;;;;4.47;3.65;;;20.40;59.70;;;;;;5112266;28;20058;-79
2022/05/31 04:09:05;;;;;;;5.88;3.90;;;20.40;59.70;;;;;;5113472;28;20024;-81
2022/05/31 04:11:31;;;;;;;4.63;3.65;;;20.50;59.40;;;;;;5114109;28;20504;-87
2022/05/31 04:13:57;;;;;;;6.03;3.55;;;20.50;59.70;;;;;;5115416;28;20077;-87
2022/05/31 04:16:23;;;;;;;5.18;3.58;;;20.30;59.90;;;;;;5116191;28;20028;-79
2022/05/31 04:18:48;;;;;;;5.18;3.55;;;20.20;60.10;;;;;;5114006;28;20027;-80
2022/05/31 04:21:19;;;;;;;6.00;3.72;;;20.10;60.50;;;;;;5115488;28;20031;-90
2022/05/31 04:24:08;;;;;;;;;;;20.40;60.20;;;;;;5114661;28;20057;-86
2022/05/31 04:26:47;;;;;;;5.85;3.60;;;20.70;59.50;;;;;;5116146;28;19904;-81
2022/05/31 04:29:13;;;;;;;6.85;3.60;;;21.00;58.80;;;;;;5101177;28;20024;-92
2022/05/31 04:31:38;;;;;;;4.80;3.30;;;21.10;58.80;;;;;;5113402;28;20028;-80
2022/05/31 04:34:05;;;;;;;5.50;3.33;;;21.30;58.50;;;;;;5104828;28;20016;-92
2022/05/31 04:36:31;;;;;;;5.40;3.60;;;21.30;58.80;;;;;;5095302;28;20367;-86
2022/05/31 04:38:58;;;;;;;6.80;3.55;;;21.40;58.70;;;;;;5095693;28;20031;-82
2022/05/31 04:41:26;;;;;;;5.25;3.20;;;21.60;58.40;;;;;;5095295;28;20028;-87
2022/05/31 04:43:58;;;;;;;4.53;3.10;;;21.70;58.20;;;;;;5098291;28;20144;-88
2022/05/31 04:46:27;;;;;;;6.32;3.17;;;21.70;58.20;;;;;;5116434;28;20020;-83
2022/05/31 04:48:53;;;;;;;4.78;3.30;;;21.80;58.30;;;;;;5117277;28;20099;-94
2022/05/31 04:51:20;;;;;;;5.32;3.05;;;21.80;58.30;;;;;;5115541;28;20026;-92
2022/05/31 04:53:45;;;;;;;5.93;3.50;;;21.80;58.70;;;;;;5108122;28;20063;-86
2022/05/31 04:56:17;;;;;;;5.72;3.35;;;21.80;58.60;;;;;;5114064;28;20059;-80
2022/05/31 04:58:43;;;;;;;4.32;3.10;;;21.50;59.40;;;;;;5114592;28;20032;-83
2022/05/31 05:01:09;;;;;;;5.32;3.03;;;21.50;59.80;;;;;;5116445;28;20016;-82
2022/05/31 05:03:35;;;;;;;4.28;2.90;;;21.60;59.30;;;;;;5107543;28;20048;-84
2022/05/31 05:06:03;;;;;;;3.83;2.80;;;21.90;58.70;;;;;;5105890;28;20110;-86
2022/05/31 05:08:30;;;;;;;4.03;2.60;;;21.90;58.80;;;;;;5115897;28;20405;-78
2022/05/31 05:10:58;;;;;;;5.03;2.88;;;22.20;58.30;;;;;;5115807;28;20101;-84
2022/05/31 05:13:24;;;;;;;6.05;3.00;;;22.30;58.20;;;;;;5113484;28;20028;-88
2022/05/31 05:15:51;;;;;;;4.35;2.80;;;22.40;58.50;;;;;;5108005;28;20410;-80
2022/05/31 05:18:17;;;;;;;4.10;2.40;;;22.50;58.50;;;;;;5114131;28;20034;-87
2022/05/31 05:20:42;;;;;;;5.38;2.63;;;22.60;58.00;;;;;;5114668;28;20016;-81
2022/05/31 05:23:09;;;;;;;4.57;2.67;;;22.80;57.10;;;;;;5111248;28;20035;-82
2022/05/31 05:25:34;;;;;;;4.85;2.60;;;22.80;56.90;;;;;;5116359;28;20030;-82
2022/05/31 05:28:00;;;;;;;5.22;2.55;;;23.10;56.70;;;;;;5114641;28;20027;-85
2022/05/31 05:30:39;;;;;;;6.03;2.70;;;23.20;55.80;;;;;;5116332;28;20016;-94
2022/05/31 05:33:06;;;;;;;4.97;2.58;;;23.10;56.10;;;;;;5106056;28;20023;-86
2022/05/31 05:35:32;;;;;;;4.60;2.40;;;23.30;55.70;;;;;;5116146;28;20057;-90
2022/05/31 05:37:59;;;;;;;4.97;2.60;;;23.30;55.30;;;;;;5114651;28;20382;-84
2022/05/31 05:40:25;;;;;;;4.38;2.22;;;23.40;54.90;;;;;;5111931;28;20035;-87
2022/05/31 05:42:50;;;;;;;9.60;2.83;;;23.20;55.40;;;;;;5108862;27;20465;-79
2022/05/31 05:45:18;;;;;;;3.78;2.40;;;23.00;55.10;;;;;;5133063;27;20015;-81
2022/05/31 05:47:44;;;;;;;6.13;2.58;;;23.20;55.40;;;;;;5128332;27;20048;-83
2022/05/31 05:50:10;;;;;;;4.07;2.55;;;23.40;55.10;;;;;;5120132;27;20069;-82
2022/05/31 05:52:36;;;;;;;5.80;2.30;;;23.60;54.80;;;;;;5113630;28;20028;-81
2022/05/31 05:55:04;;;;;;;4.00;2.30;;;23.80;54.50;;;;;;5112801;28;20476;-82
2022/05/31 05:57:30;;;;;;;4.07;2.70;;;23.70;54.40;;;;;;5114180;27;20074;-82
2022/05/31 05:59:55;;;;;;;4.25;2.30;;;23.80;54.60;;;;;;5113997;27;20039;-81
2022/05/31 06:02:29;;;;;;;3.70;2.30;;;23.90;54.60;;;;;;5109105;28;20089;-80
2022/05/31 06:05:03;;;;;;;4.30;2.35;;;23.70;54.40;;;;;;5110459;28;20520;-84
2022/05/31 06:07:38;;;;;;;5.43;2.60;;;23.90;54.50;;;;;;5093268;28;20027;-83
2022/05/31 06:10:12;;;;;;;4.47;2.40;;;24.20;54.40;;;;;;5093515;28;20024;-80
2022/05/31 06:12:43;;;;;;;4.07;2.35;;;24.60;54.00;;;;;;5128538;27;20466;-84
2022/05/31 06:15:15;;;;;;;4.20;2.28;;;24.80;53.30;;;;;;5134736;27;20574;-85
2022/05/31 06:17:44;;;;;;;5.95;2.20;;;24.70;53.00;;;;;;5122838;27;20043;-83
2022/05/31 06:20:11;;;;;;;5.82;2.10;;;24.90;53.40;;;;;;5110233;27;20042;-88
2022/05/31 06:22:40;;;;;;;4.00;2.20;;;25.10;52.80;;;;;;5141029;27;20092;-83
2022/05/31 06:25:07;;;;;;;4.07;2.30;;;25.10;52.40;;;;;;5127418;27;20020;-80
2022/05/31 06:27:33;;;;;;;5.05;2.20;;;25.30;52.40;;;;;;5112338;28;20031;-82
2022/05/31 06:29:59;;;;;;;3.40;2.20;;;25.10;51.60;;;;;;5113162;28;20084;-86
2022/05/31 06:32:25;;;;;;;4.63;2.00;;;24.90;52.10;;;;;;5112628;28;20034;-83
2022/05/31 06:34:50;;;;;;;6.25;2.00;;;25.30;52.60;;;;;;5104129;28;20038;-80
2022/05/31 06:37:17;;;;;;;5.28;2.28;;;25.70;51.50;;;;;;5108856;28;20106;-80
2022/05/31 06:39:44;;;;;;;4.60;2.33;;;25.80;51.80;;;;;;5103144;28;20485;-80
2022/05/31 06:42:10;;;;;;;4.10;2.10;;;26.10;51.10;;;;;;5112443;28;20457;-84
2022/05/31 06:44:39;;;;;;;4.57;1.90;;;26.30;50.60;;;;;;5094144;28;20380;-83
2022/05/31 06:47:05;;;;;;;3.55;2.05;;;26.40;50.70;;;;;;5093334;28;20595;-80
2022/05/31 06:49:31;;;;;;;4.85;2.13;;;26.60;51.20;;;;;;5091973;28;20478;-79
2022/05/31 06:57:36;;;;;;;3.50;2.00;;;26.60;49.30;;;;;;5092658;28;20039;-77
2022/05/31 07:00:07;;;;;;;3.97;2.22;;;26.40;49.90;;;;;;5091446;28;20020;-83
2022/05/31 07:02:33;;;;;;;2.70;1.70;;;26.10;49.40;;;;;;5091714;28;20073;-81
2022/05/31 07:04:59;;;;;;;3.50;1.90;;;26.00;50.30;;;;;;5091794;28;20051;-81
2022/05/31 07:07:24;;;;;;;4.25;1.98;;;25.80;50.30;;;;;;5091446;28;20055;-81
2022/05/31 07:09:51;;;;;;;3.65;1.88;;;25.30;50.60;;;;;;5092573;28;20032;-84
2022/05/31 07:12:17;;;;;;;3.20;1.90;;;25.40;50.50;;;;;;5092018;28;20558;-78
2022/05/31 07:14:42;;;;;;;3.90;2.10;;;25.70;51.00;;;;;;5093246;28;20103;-81
2022/05/31 07:17:09;;;;;;;3.30;1.70;;;25.60;51.40;;;;;;5091702;28;20028;-91
2022/05/31 07:19:34;;;;;;;4.30;1.83;;;24.70;51.60;;;;;;5092989;28;20490;-87
2022/05/31 07:22:01;;;;;;;3.78;1.92;;;24.20;52.00;;;;;;5093105;28;20032;-80
2022/05/31 07:24:27;;;;;;;4.95;1.77;;;24.70;52.60;;;;;;5093803;28;20020;-83
2022/05/31 07:26:53;;;;;;;3.35;1.90;;;25.40;51.40;;;;;;5092357;28;20047;-79
2022/05/31 07:29:19;;;;;;;6.05;2.05;;;25.70;50.00;;;;;;5092274;28;20547;-91
2022/05/31 07:31:45;;;;;;;4.28;1.80;;;25.80;49.70;;;;;;5093402;28;20020;-90
2022/05/31 07:34:12;;;;;;;4.78;1.70;;;25.00;50.10;;;;;;5094169;28;20016;-91
2022/05/31 07:36:39;;;;;;;3.72;1.88;;;25.10;51.20;;;;;;5094076;28;20433;-83
2022/05/31 07:39:05;;;;;;;3.25;1.90;;;25.40;50.20;;;;;;5093708;28;20428;-83
2022/05/31 07:41:32;;;;;;;4.70;1.80;;;25.50;50.10;;;;;;5094163;28;20020;-80
2022/05/31 07:43:59;;;;;;;4.60;1.73;;;25.90;49.60;;;;;;5093754;28;20063;-81
2022/05/31 07:46:24;;;;;;;3.35;1.90;;;26.20;50.60;;;;;;5095663;28;20107;-77
2022/05/31 07:48:50;;;;;;;3.47;1.73;;;26.30;49.20;;;;;;5096107;28;20123;-81
2022/05/31 07:51:16;;;;;;;3.67;1.90;;;26.60;49.90;;;;;;5096324;28;20028;-80
2022/05/31 07:53:42;;;;;;;4.65;1.75;;;26.10;46.40;;;;;;5095825;28;20031;-88
2022/05/31 07:56:09;;;;;;;4.80;1.70;;;25.90;48.80;;;;;;5095420;28;20490;-83
2022/05/31 07:58:37;;;;;;;6.45;1.95;;;26.00;47.30;;;;;;5096749;28;20557;-80
2022/05/31 08:01:06;;;;;;;2.95;1.80;;;25.60;47.60;;;;;;5095409;28;20036;-85
2022/05/31 08:03:34;;;;;;;4.22;1.77;;;25.50;48.90;;;;;;5095021;28;20044;-77
2022/05/31 08:06:06;;;;;;;3.20;1.70;;;25.90;49.30;;;;;;5095789;28;20425;-93
2022/05/31 08:08:32;;;;;;;4.35;1.80;;;25.70;48.70;;;;;;5095167;28;20025;-86
2022/05/31 08:11:01;;;;;;;4.03;1.83;;;25.10;48.20;;;;;;5096634;28;20028;-78
2022/05/31 08:13:26;;;;;;;5.35;2.20;;;24.20;51.90;;;;;;5095687;28;20031;-78
2022/05/31 08:15:52;;;;;;;4.40;1.60;;;24.90;49.80;;;;;;5095946;28;20123;-80
2022/05/31 08:18:18;;;;;;;3.15;1.70;;;25.60;50.20;;;;;;5096086;28;20085;-78
2022/05/31 08:20:43;;;;;;;3.25;1.70;;;26.10;48.20;;;;;;5094602;28;20355;-88
2022/05/31 08:23:10;;;;;;;3.45;1.70;;;25.80;48.00;;;;;;5096069;28;20077;-84
2022/05/31 08:25:38;;;;;;;3.03;1.60;;;25.80;48.50;;;;;;5095382;28;20493;-76
2022/05/31 08:28:04;;;;;;;3.22;1.60;;;25.90;47.20;;;;;;5095165;28;20028;-79
2022/05/31 08:30:30;;;;;;;5.55;1.77;;;25.60;46.80;;;;;;5094925;28;20024;-87
2022/05/31 08:32:56;;;;;;;3.58;1.70;;;25.80;47.20;;;;;;5095781;28;20027;-80
2022/05/31 08:35:22;;;;;;;4.65;2.00;;;25.90;47.40;;;;;;5095128;28;20024;-82
2022/05/31 08:37:47;;;;;;;3.50;1.45;;;25.50;48.30;;;;;;5095166;28;20363;-81
2022/05/31 08:40:13;;;;;;;3.70;1.70;;;25.90;49.60;;;;;;5094558;28;20031;-84
2022/05/31 08:43:02;;;;;;;5.95;2.00;;;26.00;47.60;;;;;;5094619;28;20039;-77
2022/05/31 08:45:33;;;;;;;3.45;1.70;;;25.80;48.30;;;;;;5094375;28;20486;-79
2022/05/31 08:48:24;;;;;;;3.40;1.60;;;25.70;48.90;;;;;;5094756;28;20028;-84
2022/05/31 08:56:57;;;;;;;3.50;1.67;;;25.90;48.80;;;;;;5096462;28;20089;-80
2022/05/31 08:59:39;;;;;;;4.78;1.70;;;25.90;49.10;;;;;;5094590;28;20025;-83
2022/05/31 09:02:16;;;;;;;4.40;1.88;;;26.60;47.30;;;;;;5093812;28;20028;-86
2022/05/31 09:04:45;;;;;;;5.80;1.98;;;26.10;46.90;;;;;;5095993;28;20024;-78
2022/05/31 09:07:25;;;;;;;3.33;1.80;;;24.90;47.90;;;;;;5094109;28;20024;-81
2022/05/31 09:09:53;;;;;;;3.60;1.97;;;24.40;48.70;;;;;;5095972;28;20088;-81
2022/05/31 09:12:24;;;;;;;7.97;2.17;;;24.90;50.50;;;;;;5094219;28;20016;-83
2022/05/31 09:14:53;;;;;;;5.18;2.00;;;25.80;49.40;;;;;;5094373;28;20046;-82
2022/05/31 09:17:33;;;;;;;7.50;2.00;;;26.30;47.60;;;;;;5095451;28;20036;-78
2022/05/31 09:20:02;;;;;;;4.05;2.08;;;25.30;48.10;;;;;;5095172;28;20024;-87
2022/05/31 09:22:28;;;;;;;4.07;2.00;;;24.90;48.80;;;;;;5093803;28;20043;-87
2022/05/31 09:24:54;;;;;;;5.35;2.00;;;25.50;48.20;;;;;;5094872;28;20024;-80
2022/05/31 09:27:40;;;;;;;3.90;1.92;;;26.30;48.60;;;;;;5095621;28;20360;-78
2022/05/31 09:30:13;;;;;;;3.28;1.75;;;26.00;46.90;;;;;;5095027;28;20104;-79
2022/05/31 09:32:57;;;;;;;5.03;2.13;;;25.50;49.90;;;;;;5094812;28;20414;-78
2022/05/31 09:35:57;;;;;;;4.70;2.10;;;26.20;48.20;;;;;;5094969;28;20039;-93
2022/05/31 09:38:48;;;;;;;4.85;1.98;;;26.90;49.30;;;;;;5093558;28;20474;-78
2022/05/31 09:41:30;;;;;;;5.00;2.08;;;27.40;48.80;;;;;;5093169;28;20097;-84
2022/05/31 09:44:06;;;;;;;4.20;1.70;;;26.70;46.80;;;;;;5094913;28;20489;-85
2022/05/31 09:46:35;;;;;;;4.68;2.13;;;26.50;47.40;;;;;;5094354;28;20028;-88
2022/05/31 09:49:32;;;;;;;7.45;1.80;;;26.00;46.80;;;;;;5093566;28;20028;-82
2022/05/31 09:51:58;;;;;;;3.75;2.17;;;25.50;48.30;;;;;;5083324;28;20035;-83
2022/05/31 09:57:21;;;;;;;3.40;1.90;;;25.50;49.40;;;;;;5095740;28;20031;-89
2022/05/31 09:59:50;;;;;;;5.35;1.90;;;25.00;49.60;;;;;;5094002;28;20024;-91
2022/05/31 10:02:33;;;;;;;5.75;2.10;;;25.30;49.60;;;;;;5092831;28;20109;-81
2022/05/31 10:05:29;;;;;;;19.55;2.50;;;25.50;49.10;;;;;;5093693;28;20465;-84
2022/05/31 10:07:54;;;;;;;4.10;2.10;;;25.80;49.30;;;;;;5075810;28;20028;-88
2022/05/31 10:10:27;;;;;;;6.28;2.00;;;26.10;49.50;;;;;;5094259;28;20035;-81
2022/05/31 10:12:54;;;;;;;4.47;2.17;;;26.60;48.80;;;;;;5092450;28;20088;-79
2022/05/31 10:15:42;;;;;;;5.22;2.08;;;27.00;48.00;;;;;;5094111;28;20020;-81
2022/05/31 10:18:30;;;;;;;5.28;2.17;;;27.00;47.30;;;;;;5093472;28;20027;-79
2022/05/31 10:21:02;;;;;;;5.68;1.90;;;26.80;48.00;;;;;;5093586;28;20085;-79
2022/05/31 10:23:43;;;;;;;5.32;2.00;;;26.80;47.20;;;;;;5093940;28;20028;-86
2022/05/31 10:26:26;;;;;;;4.63;1.83;;;26.70;47.50;;;;;;5093272;28;20108;-79
2022/05/31 10:28:56;;;;;;;4.55;1.90;;;26.50;48.70;;;;;;5093079;28;20024;-76
2022/05/31 10:31:33;;;;;;;4.38;2.00;;;27.20;48.00;;;;;;5092062;28;20024;-79
2022/05/31 10:34:01;;;;;;;5.45;2.10;;;28.10;49.00;;;;;;5092038;28;20139;-85
2022/05/31 10:36:45;;;;;;;7.40;2.20;;;28.70;47.70;;;;;;5093622;28;20424;-82
2022/05/31 10:39:16;;;;;;;3.72;2.17;;;29.20;47.70;;;;;;5093433;28;20031;-82
2022/05/31 10:41:41;;;;;;;6.45;2.30;;;28.20;45.50;;;;;;5076304;28;20451;-84
2022/05/31 10:44:36;;;;;;;5.40;2.10;;;26.90;47.70;;;;;;5093422;28;20036;-78
2022/05/31 10:47:15;;;;;;;4.18;2.20;;;26.90;48.40;;;;;;5075297;28;20032;-81
2022/05/31 10:49:42;;;;;;;3.38;2.20;;;26.90;48.90;;;;;;5092171;28;20111;-80
2022/05/31 10:52:35;;;;;;;6.05;2.15;;;27.30;48.10;;;;;;5091645;28;20436;-81
2022/05/31 10:55:27;;;;;;;4.43;2.28;;;27.90;47.00;;;;;;5092898;28;20028;-75
2022/05/31 10:58:11;;;;;;;6.05;2.30;;;28.20;47.60;;;;;;5084805;28;20421;-77
2022/05/31 11:01:09;;;;;;;5.90;2.20;;;28.40;48.10;;;;;;5093353;28;20028;-75
2022/05/31 11:03:50;;;;;;;7.75;2.40;;;28.80;47.60;;;;;;5093020;28;20066;-89
2022/05/31 11:06:30;;;;;;;8.68;2.53;;;29.10;47.00;;;;;;5093466;28;20028;-85
2022/05/31 11:11:52;;;;;;;4.53;2.30;;;27.80;48.10;;;;;;5093296;28;20397;-88
2022/05/31 11:14:47;;;;;;;4.10;2.30;;;28.00;48.00;;;;;;5092110;28;20059;-85
2022/05/31 11:17:46;;;;;;;5.25;2.30;;;28.40;47.60;;;;;;5013881;28;20065;-77
2022/05/31 11:20:26;;;;;;;10.05;3.40;;;28.80;47.30;;;;;;5017883;28;20392;-75
2022/05/31 11:22:54;;;;;;;;;;;28.30;46.50;;;;;;5020107;28;20041;-77
2022/05/31 11:25:47;;;;;;;7.30;2.40;;;27.90;48.00;;;;;;5034999;28;19943;-84
2022/05/31 11:28:37;;;;;;;6.88;2.55;;;28.00;48.00;;;;;;5034743;28;20049;-78
2022/05/31 11:31:08;;;;;;;4.80;2.63;;;28.30;47.40;;;;;;5019405;28;20025;-79
2022/05/31 11:34:15;;;;;;;4.38;2.80;;;27.70;48.50;;;;;;5035167;28;20475;-83
2022/05/31 11:37:02;;;;;;;7.13;3.00;;;26.90;48.60;;;;;;5035123;28;20396;-79
2022/05/31 11:39:31;;;;;;;5.78;2.88;;;26.60;49.30;;;;;;5018122;28;20030;-77
2022/05/31 11:42:15;;;;;;;5.40;2.47;;;27.10;49.40;;;;;;5034380;28;20017;-78
2022/05/31 11:44:49;;;;;;;5.80;2.63;;;27.90;48.80;;;;;;5034599;28;20026;-83
2022/05/31 11:47:14;;;;;;;5.05;2.55;;;27.70;47.20;;;;;;5017898;28;20044;-77
2022/05/31 11:49:51;;;;;;;5.60;2.67;;;27.60;47.60;;;;;;5017549;28;20065;-78
2022/05/31 11:52:26;;;;;;;4.55;2.55;;;28.00;48.20;;;;;;5034301;28;20554;-77
2022/05/31 11:55:26;;;;;;;5.10;2.65;;;28.50;48.10;;;;;;5096868;28;20434;-83
2022/05/31 11:58:08;;;;;;;4.68;2.67;;;28.40;46.70;;;;;;5095369;28;20522;-78
2022/05/31 12:01:03;;;;;;;4.93;2.72;;;28.80;48.20;;;;;;5095383;28;20478;-79
2022/05/31 12:03:50;;;;;;;4.50;2.75;;;29.50;45.80;;;;;;5094412;28;20043;-86
2022/05/31 12:06:43;;;;;;;6.72;2.70;;;29.50;46.40;;;;;;5095300;28;20067;-78
2022/05/31 12:09:33;;;;;;;4.53;2.58;;;28.70;46.10;;;;;;5096309;28;20103;-87
2022/05/31 12:12:01;;;;;;;7.25;2.80;;;28.10;47.20;;;;;;5095244;28;20445;-88
2022/05/31 12:14:30;;;;;;;4.93;2.63;;;28.30;47.10;;;;;;5096412;28;20027;-81
2022/05/31 12:16:57;;;;;;;6.93;3.08;;;27.90;47.50;;;;;;5096044;28;20035;-81
2022/05/31 12:19:28;;;;;;;4.90;2.90;;;27.10;48.20;;;;;;5094901;28;20024;-77
2022/05/31 12:22:15;;;;;;;5.28;3.38;;;27.10;48.50;;;;;;5096268;28;20466;-78
2022/05/31 12:24:48;;;;;;;5.10;2.90;;;27.20;48.80;;;;;;5095765;28;20115;-76
2022/05/31 12:27:30;;;;;;;5.05;3.40;;;27.40;48.70;;;;;;5095831;28;20031;-82
2022/05/31 12:30:05;;;;;;;6.53;3.03;;;27.50;47.80;;;;;;5094842;28;20020;-86
2022/05/31 12:32:45;;;;;;;10.20;3.53;;;26.80;48.70;;;;;;5094504;28;20031;-83
2022/05/31 12:35:31;;;;;;;5.25;3.25;;;26.60;48.90;;;;;;5094818;28;20032;-76
2022/05/31 12:38:02;;;;;;;7.72;3.08;;;26.60;49.40;;;;;;5095649;28;20428;-79
2022/05/31 12:40:34;;;;;;;8.90;3.22;;;27.10;48.10;;;;;;5094167;28;20035;-78
2022/05/31 12:43:03;;;;;;;5.18;2.88;;;27.80;48.10;;;;;;5096083;28;20062;-78
2022/05/31 12:45:35;;;;;;;8.07;2.90;;;27.60;47.60;;;;;;5094648;28;20069;-84
2022/05/31 12:48:25;;;;;;;5.05;3.00;;;27.00;47.80;;;;;;5094175;28;20040;-79
2022/05/31 12:50:57;;;;;;;5.07;3.28;;;27.50;48.30;;;;;;5093765;28;20425;-79
2022/05/31 12:53:37;;;;;;;6.22;2.70;;;27.90;47.50;;;;;;5095266;28;20370;-77
2022/05/31 12:56:06;;;;;;;5.38;2.60;;;28.10;48.30;;;;;;5094202;28;20035;-93
2022/05/31 12:58:58;;;;;;;6.18;2.83;;;28.20;48.30;;;;;;5095380;28;20020;-77
2022/05/31 13:01:24;;;;;;;5.63;2.55;;;28.40;47.00;;;;;;5092243;28;20101;-77
2022/05/31 13:03:50;;;;;;;5.70;2.85;;;28.80;47.90;;;;;;5093851;28;20048;-79
2022/05/31 13:06:34;;;;;;;6.60;3.00;;;28.80;47.50;;;;;;5094228;28;20028;-83
2022/05/31 13:09:13;;;;;;;9.00;3.20;;;28.20;48.20;;;;;;5094980;28;20035;-80
2022/05/31 13:20:33;;;;;;;4.82;2.95;;;27.90;47.60;;;;;;5094930;28;20042;-79
2022/05/31 13:23:11;;;;;;;6.57;2.83;;;28.40;46.40;;;;;;5093480;28;20032;-85
2022/05/31 13:25:56;;;;;;;6.15;3.00;;;28.50;47.30;;;;;;5095604;28;20072;-82
2022/05/31 13:28:26;;;;;;;6.05;2.70;;;27.90;46.80;;;;;;5094631;28;20022;-81
2022/05/31 13:30:57;;;;;;;5.57;3.13;;;28.10;46.90;;;;;;5093392;28;20107;-77
2022/05/31 13:33:23;;;;;;;7.38;3.25;;;28.20;47.30;;;;;;5113732;27;20059;-85
2022/05/31 13:36:11;;;;;;;5.03;2.97;;;28.60;46.30;;;;;;5113908;28;20028;-77
2022/05/31 13:38:41;;;;;;;5.03;2.72;;;28.40;47.00;;;;;;5115214;28;20023;-82